Time;durP1;ratioP1;P1;durP2;ratioP2;P2;SDS_P1;SDS_P2;PMS_P1;PMS_P2;Temp;Humidity;BMP_temperature;BMP_pressure;BME280_temperature;BME280_humidity;BME280_pressure;Samples;Min_cycle;Max_cycle;Signal;HPM_P1;HPM_P2
2021/12/01 00:01:09;;;;;;;8.43;3.88;;;;;;;3.12;100.00;99155.94;5093936;28;20040;-74
2021/12/01 00:03:37;;;;;;;9.77;4.38;;;;;;;3.14;100.00;99154.09;5094357;28;20079;-74
2021/12/01 00:06:06;;;;;;;6.70;3.60;;;;;;;3.20;100.00;99163.50;5093828;28;20048;-75
2021/12/01 00:08:36;;;;;;;6.72;4.03;;;;;;;3.12;100.00;99156.81;5093293;28;20039;-78
2021/12/01 00:11:05;;;;;;;6.55;4.10;;;;;;;3.11;100.00;99160.38;5093502;28;20044;-76
2021/12/01 00:13:34;;;;;;;7.47;3.70;;;;;;;3.21;100.00;99166.06;5093748;28;20405;-75
2021/12/01 00:16:07;;;;;;;6.63;3.35;;;;;;;3.30;100.00;99164.78;5093743;28;20085;-75
2021/12/01 00:18:36;;;;;;;6.22;3.35;;;;;;;3.36;100.00;99165.31;5094053;28;20052;-75
2021/12/01 00:21:04;;;;;;;6.75;3.17;;;;;;;3.50;100.00;99171.72;5093588;28;20054;-75
2021/12/01 00:23:33;;;;;;;5.78;3.20;;;;;;;3.43;100.00;99158.81;5093868;28;20481;-77
2021/12/01 00:26:03;;;;;;;5.32;3.10;;;;;;;3.39;100.00;99170.47;5093550;28;20393;-77
2021/12/01 00:28:33;;;;;;;6.88;3.13;;;;;;;3.43;100.00;99166.72;5093719;28;20040;-78
2021/12/01 00:31:02;;;;;;;5.22;2.63;;;;;;;3.54;100.00;99174.13;5091941;28;20052;-78
2021/12/01 00:33:31;;;;;;;5.50;2.83;;;;;;;3.56;100.00;99179.31;5093153;28;20040;-77
2021/12/01 00:36:00;;;;;;;5.07;3.00;;;;;;;3.62;100.00;99186.94;5093297;28;20105;-76
2021/12/01 00:38:30;;;;;;;4.63;2.78;;;;;;;3.63;100.00;99189.50;5093638;28;20044;-77
2021/12/01 00:41:02;;;;;;;4.28;2.55;;;;;;;3.75;100.00;99180.13;5093420;28;20040;-76
2021/12/01 00:43:31;;;;;;;3.45;2.08;;;;;;;4.00;100.00;99185.03;5093641;28;20425;-70
2021/12/01 00:46:10;;;;;;;3.83;2.00;;;;;;;4.12;100.00;99180.94;5092824;28;20055;-75
2021/12/01 00:48:38;;;;;;;3.38;1.70;;;;;;;4.28;100.00;99179.22;5093462;28;20040;-74
2021/12/01 00:51:07;;;;;;;2.20;1.27;;;;;;;4.27;100.00;99174.88;5093214;28;20151;-74
2021/12/01 00:53:35;;;;;;;3.58;1.83;;;;;;;4.30;100.00;99188.75;5092958;28;20040;-74
2021/12/01 00:56:04;;;;;;;2.55;1.27;;;;;;;4.45;100.00;99189.78;5092920;28;20044;-71
2021/12/01 00:58:33;;;;;;;3.67;1.85;;;;;;;4.44;100.00;99197.75;5093086;28;20127;-71
2021/12/01 01:01:03;;;;;;;2.78;1.60;;;;;;;4.42;100.00;99207.53;5093050;28;20473;-71
2021/12/01 01:03:32;;;;;;;3.17;1.60;;;;;;;4.46;100.00;99198.53;5093566;28;20090;-76
2021/12/01 01:06:01;;;;;;;3.10;1.48;;;;;;;4.48;100.00;99188.75;5092769;28;20047;-74
2021/12/01 01:08:29;;;;;;;3.22;1.77;;;;;;;4.53;100.00;99205.19;5093054;28;20109;-77
2021/12/01 01:11:09;;;;;;;3.15;1.67;;;;;;;4.53;100.00;99208.69;5092657;28;20051;-75
2021/12/01 01:16:25;;;;;;;3.33;1.65;;;;;;;4.47;100.00;99209.03;5093276;28;20044;-75
2021/12/01 01:19:00;;;;;;;5.07;1.70;;;;;;;4.49;100.00;99204.50;5093857;28;20485;-77
2021/12/01 01:21:31;;;;;;;2.53;1.42;;;;;;;4.51;100.00;99205.28;5097502;28;20048;-76
2021/12/01 01:24:00;;;;;;;2.97;1.50;;;;;;;4.48;100.00;99221.28;5097169;28;20093;-76
2021/12/01 01:26:29;;;;;;;2.45;1.38;;;;;;;4.53;100.00;99213.13;5097242;28;20126;-76
2021/12/01 01:28:57;;;;;;;2.60;1.50;;;;;;;4.50;100.00;99222.06;5096674;28;20101;-77
2021/12/01 01:31:27;;;;;;;2.70;1.58;;;;;;;4.48;100.00;99220.44;5096786;28;20055;-76
2021/12/01 01:33:57;;;;;;;3.35;1.52;;;;;;;4.46;100.00;99217.03;5097358;28;20040;-73
2021/12/01 01:36:26;;;;;;;2.05;1.02;;;;;;;4.54;100.00;99220.97;5097060;28;20067;-73
2021/12/01 01:38:54;;;;;;;4.90;1.52;;;;;;;4.57;100.00;99210.25;5096740;28;20056;-73
2021/12/01 01:41:22;;;;;;;3.00;1.60;;;;;;;4.54;100.00;99220.97;5096710;28;20143;-74
2021/12/01 01:43:52;;;;;;;2.10;1.25;;;;;;;4.64;100.00;99215.22;5096648;28;20089;-73
2021/12/01 01:46:21;;;;;;;3.15;1.60;;;;;;;4.60;100.00;99219.78;5096521;28;20064;-74
2021/12/01 01:48:53;;;;;;;3.55;2.05;;;;;;;4.65;100.00;99212.50;5096859;28;20044;-72
2021/12/01 01:51:24;;;;;;;2.83;1.10;;;;;;;4.69;100.00;99231.66;5096594;28;20441;-73
2021/12/01 01:53:53;;;;;;;4.18;1.60;;;;;;;4.55;100.00;99227.97;5096793;28;20093;-73
2021/12/01 01:56:23;;;;;;;3.65;1.70;;;;;;;4.68;100.00;99235.25;5096104;28;20101;-71
2021/12/01 01:58:52;;;;;;;2.85;1.45;;;;;;;4.61;100.00;99232.06;5096650;28;20040;-71
2021/12/01 02:01:44;;;;;;;3.30;1.65;;;;;;;4.58;100.00;99237.50;5096086;28;20113;-74
2021/12/01 02:04:18;;;;;;;2.35;1.48;;;;;;;4.68;100.00;99237.88;5096331;28;20076;-74
2021/12/01 02:06:48;;;;;;;2.70;1.48;;;;;;;4.67;100.00;99237.03;5096378;28;20157;-71
2021/12/01 02:09:19;;;;;;;2.28;1.40;;;;;;;4.74;100.00;99232.28;5096063;28;20093;-71
2021/12/01 02:11:48;;;;;;;1.60;0.90;;;;;;;4.82;100.00;99224.78;5096570;28;20379;-71
2021/12/01 02:14:17;;;;;;;2.17;1.27;;;;;;;4.81;100.00;99231.88;5095911;28;20139;-71
2021/12/01 02:16:45;;;;;;;2.60;1.30;;;;;;;4.74;100.00;99224.38;5096312;28;20043;-71
2021/12/01 02:19:14;;;;;;;2.63;1.23;;;;;;;4.86;100.00;99226.34;5095689;28;20093;-71
2021/12/01 02:21:46;;;;;;;1.83;1.13;;;;;;;4.81;100.00;99233.66;5096251;28;20044;-71
2021/12/01 02:24:16;;;;;;;1.77;1.17;;;;;;;4.82;100.00;99230.06;5095691;28;20048;-71
2021/12/01 02:26:47;;;;;;;2.30;1.30;;;;;;;4.87;100.00;99241.28;5096009;28;20062;-71
2021/12/01 02:29:18;;;;;;;2.45;1.40;;;;;;;4.88;100.00;99229.75;5095588;28;20067;-71
2021/12/01 02:31:50;;;;;;;1.05;0.90;;;;;;;4.83;100.00;99237.09;5095345;28;20048;-71
2021/12/01 02:34:20;;;;;;;1.42;1.08;;;;;;;4.95;100.00;99231.16;5095719;28;20477;-71
2021/12/01 02:36:52;;;;;;;1.50;1.00;;;;;;;4.92;100.00;99239.22;5096217;28;20040;-71
2021/12/01 02:39:20;;;;;;;2.00;1.20;;;;;;;4.88;100.00;99237.69;5095722;28;20040;-71
2021/12/01 02:41:52;;;;;;;1.10;0.90;;;;;;;4.99;100.00;99230.03;5096857;28;20075;-75
2021/12/01 02:44:21;;;;;;;1.07;0.77;;;;;;;5.08;100.00;99226.91;5095577;28;20050;-75
2021/12/01 02:46:49;;;;;;;0.70;0.57;;;;;;;5.13;100.00;99227.53;5095709;28;20082;-71
2021/12/01 02:49:25;;;;;;;0.45;0.45;;;;;;;5.12;100.00;99223.19;5095237;28;20068;-71
2021/12/01 02:51:56;;;;;;;1.38;1.00;;;;;;;5.16;100.00;99235.28;5095597;28;20126;-71
2021/12/01 02:54:26;;;;;;;0.70;0.60;;;;;;;5.24;100.00;99236.66;5093983;28;20044;-72
2021/12/01 02:56:55;;;;;;;1.60;0.80;;;;;;;5.27;100.00;99228.56;5095564;28;20051;-72
2021/12/01 02:59:25;;;;;;;1.38;0.90;;;;;;;5.19;100.00;99221.03;5095142;28;20067;-72
2021/12/01 03:01:54;;;;;;;1.35;0.80;;;;;;;5.21;100.00;99220.94;5095068;28;20113;-72
2021/12/01 03:04:23;;;;;;;1.45;0.90;;;;;;;5.17;100.00;99210.56;5095123;28;20113;-74
2021/12/01 03:06:52;;;;;;;0.85;0.60;;;;;;;5.18;100.00;99236.03;5095426;28;20476;-73
2021/12/01 03:09:22;;;;;;;1.98;0.90;;;;;;;5.13;100.00;99230.16;5095127;28;20044;-72
2021/12/01 03:11:50;;;;;;;0.85;0.70;;;;;;;5.11;100.00;99237.31;5095299;28;20047;-72
2021/12/01 03:14:20;;;;;;;0.90;0.50;;;;;;;5.10;100.00;99240.03;5094863;28;20528;-72
2021/12/01 03:16:50;;;;;;;1.15;0.80;;;;;;;5.10;100.00;99245.31;5095144;28;20126;-72
2021/12/01 03:19:19;;;;;;;0.68;0.55;;;;;;;5.11;100.00;99247.03;5094611;28;20052;-75
2021/12/01 03:21:47;;;;;;;1.50;0.90;;;;;;;5.04;100.00;99251.81;5095068;28;20044;-75
2021/12/01 03:24:15;;;;;;;1.17;0.45;;;;;;;5.17;100.00;99231.69;5094759;28;20047;-75
2021/12/01 03:26:47;;;;;;;0.63;0.40;;;;;;;5.09;100.00;99238.34;5094817;28;20119;-78
2021/12/01 03:29:16;;;;;;;1.15;0.68;;;;;;;5.01;100.00;99251.94;5094316;28;20130;-78
2021/12/01 03:31:44;;;;;;;0.75;0.60;;;;;;;5.04;100.00;99257.09;5094686;28;20409;-76
2021/12/01 03:34:13;;;;;;;0.57;0.55;;;;;;;4.96;100.00;99256.66;5094500;28;20370;-78
2021/12/01 03:36:41;;;;;;;0.70;0.60;;;;;;;5.01;100.00;99259.88;5094830;28;20052;-76
2021/12/01 03:39:12;;;;;;;1.58;0.70;;;;;;;5.03;100.00;99254.53;5094172;28;20053;-76
2021/12/01 03:41:40;;;;;;;3.03;1.00;;;;;;;4.96;100.00;99254.00;5093420;28;20048;-76
2021/12/01 03:44:10;;;;;;;1.23;0.73;;;;;;;5.07;100.00;99256.91;5093572;28;20071;-76
2021/12/01 03:46:39;;;;;;;1.77;0.90;;;;;;;4.99;100.00;99259.13;5094759;28;20101;-75
2021/12/01 03:49:07;;;;;;;1.55;0.90;;;;;;;4.98;100.00;99262.69;5093855;28;20044;-77
2021/12/01 03:51:36;;;;;;;0.77;0.57;;;;;;;5.00;100.00;99250.25;5094510;28;20118;-77
2021/12/01 03:54:05;;;;;;;1.08;0.70;;;;;;;5.05;100.00;99258.81;5094391;28;20466;-77
2021/12/01 03:56:34;;;;;;;1.30;0.90;;;;;;;5.07;100.00;99264.84;5094476;28;20068;-77
2021/12/01 03:59:02;;;;;;;1.23;1.00;;;;;;;5.03;100.00;99265.97;5094329;28;20040;-73
2021/12/01 04:01:32;;;;;;;1.42;1.10;;;;;;;5.09;100.00;99265.63;5093589;28;20040;-73
2021/12/01 04:04:00;;;;;;;2.15;1.27;;;;;;;5.13;100.00;99272.47;5094315;28;20089;-75
2021/12/01 04:06:28;;;;;;;1.50;0.93;;;;;;;5.15;100.00;99267.94;5093836;28;20040;-74
2021/12/01 04:08:59;;;;;;;1.27;1.10;;;;;;;5.15;100.00;99275.88;5093989;28;20489;-73
2021/12/01 04:11:27;;;;;;;0.60;0.60;;;;;;;5.23;100.00;99279.91;5093608;28;20424;-75
2021/12/01 04:13:56;;;;;;;1.23;1.05;;;;;;;5.20;100.00;99290.63;5094018;28;20066;-75
2021/12/01 04:16:25;;;;;;;2.53;0.85;;;;;;;5.22;100.00;99296.72;5093778;28;20044;-75
2021/12/01 04:18:55;;;;;;;1.25;0.90;;;;;;;5.22;100.00;99291.41;5093999;28;20044;-74
2021/12/01 04:21:25;;;;;;;1.42;0.60;;;;;;;5.26;100.00;99287.66;5093603;28;20044;-76
2021/12/01 04:23:54;;;;;;;1.67;1.05;;;;;;;5.21;100.00;99287.03;5093997;28;20075;-75
2021/12/01 04:26:24;;;;;;;2.10;1.20;;;;;;;5.12;100.00;99281.34;5093233;28;20040;-74
2021/12/01 04:28:53;;;;;;;1.45;1.13;;;;;;;5.14;100.00;99300.59;5093831;28;20123;-74
2021/12/01 04:31:22;;;;;;;2.03;1.30;;;;;;;5.16;100.00;99292.59;5093044;28;20071;-75
2021/12/01 04:33:51;;;;;;;0.95;0.80;;;;;;;5.14;100.00;99297.97;5093722;28;20040;-75
2021/12/01 04:36:26;;;;;;;1.42;0.90;;;;;;;5.09;100.00;99299.97;5093085;28;20469;-75
2021/12/01 04:38:54;;;;;;;0.82;0.75;;;;;;;5.06;100.00;99294.88;5093773;28;20044;-75
2021/12/01 04:41:23;;;;;;;0.80;0.70;;;;;;;5.06;100.00;99304.59;5093326;28;20093;-75
2021/12/01 04:43:53;;;;;;;1.23;0.90;;;;;;;5.02;100.00;99310.94;5092322;28;20127;-75
2021/12/01 04:46:21;;;;;;;2.45;0.90;;;;;;;5.04;100.00;99319.69;5093780;28;20040;-75
2021/12/01 04:48:50;;;;;;;2.45;1.00;;;;;;;5.02;100.00;99308.31;5093404;28;20051;-73
2021/12/01 04:51:18;;;;;;;1.00;0.90;;;;;;;4.97;100.00;99303.28;5093179;28;20064;-76
2021/12/01 04:53:48;;;;;;;1.63;1.15;;;;;;;4.92;100.00;99315.00;5093086;28;20047;-75
2021/12/01 04:56:18;;;;;;;1.38;0.88;;;;;;;4.96;100.00;99306.84;5092902;28;20048;-75
2021/12/01 04:58:48;;;;;;;1.63;1.17;;;;;;;4.88;100.00;99314.31;5093350;28;20161;-74
2021/12/01 05:01:17;;;;;;;1.48;1.20;;;;;;;4.80;100.00;99311.22;5092888;28;20040;-75
2021/12/01 05:03:45;;;;;;;1.73;0.90;;;;;;;4.75;100.00;99308.81;5093660;28;20067;-76
2021/12/01 05:06:16;;;;;;;1.13;0.80;;;;;;;4.74;100.00;99312.41;5092626;28;20450;-76
2021/12/01 05:08:44;;;;;;;2.35;0.93;;;;;;;4.75;100.00;99319.41;5093238;28;20044;-76
2021/12/01 05:11:14;;;;;;;1.70;1.20;;;;;;;4.65;100.00;99331.38;5092950;28;20435;-72
2021/12/01 05:13:53;;;;;;;1.50;0.63;;;;;;;4.68;100.00;99322.41;5093379;28;20036;-72
2021/12/01 05:16:22;;;;;;;2.28;1.20;;;;;;;4.68;100.00;99335.63;5092866;28;20044;-79
2021/12/01 05:18:50;;;;;;;4.32;1.40;;;;;;;4.71;100.00;99338.09;5093120;28;20070;-69
2021/12/01 05:21:19;;;;;;;2.45;1.40;;;;;;;4.63;100.00;99342.91;5092760;28;20040;-69
2021/12/01 05:23:47;;;;;;;2.60;1.42;;;;;;;4.44;100.00;99351.78;5093125;28;20040;-68
2021/12/01 05:26:17;;;;;;;1.20;0.82;;;;;;;4.65;100.00;99364.84;5092472;28;20036;-70
2021/12/01 05:28:45;;;;;;;2.78;1.50;;;;;;;4.54;100.00;99383.88;5093459;28;20119;-69
2021/12/01 05:31:14;;;;;;;1.75;1.35;;;;;;;4.53;100.00;99392.69;5091348;28;20056;-70
2021/12/01 05:33:42;;;;;;;2.33;1.42;;;;;;;4.47;100.00;99403.59;5093181;28;20063;-73
2021/12/01 05:36:10;;;;;;;2.38;1.25;;;;;;;4.61;100.00;99416.94;5093033;28;20416;-72
2021/12/01 05:38:38;;;;;;;2.72;1.52;;;;;;;4.62;100.00;99418.66;5092677;28;20101;-72
2021/12/01 05:41:07;;;;;;;3.13;1.90;;;;;;;4.83;100.00;99422.91;5092937;28;20044;-72
2021/12/01 05:43:36;;;;;;;3.63;1.73;;;;;;;4.71;100.00;99427.94;5092617;28;20040;-72
2021/12/01 05:46:05;;;;;;;2.15;1.40;;;;;;;4.73;100.00;99416.38;5092652;28;20036;-72
2021/12/01 05:48:34;;;;;;;2.75;1.55;;;;;;;4.95;100.00;99426.72;5092559;28;20620;-71
2021/12/01 05:51:03;;;;;;;2.55;1.35;;;;;;;5.04;100.00;99425.41;5092822;28;20040;-73
2021/12/01 05:53:31;;;;;;;2.17;1.40;;;;;;;5.01;100.00;99431.69;5092459;28;20048;-72
2021/12/01 05:56:00;;;;;;;4.10;1.73;;;;;;;4.98;100.00;99437.13;5091943;28;20082;-71
2021/12/01 05:58:28;;;;;;;2.60;1.42;;;;;;;4.91;100.00;99438.34;5091808;28;20047;-72
2021/12/01 06:00:57;;;;;;;1.58;1.08;;;;;;;5.04;100.00;99439.47;5092337;28;20044;-72
2021/12/01 06:03:27;;;;;;;2.85;1.58;;;;;;;5.00;100.00;99443.19;5092580;28;20063;-71
2021/12/01 06:05:55;;;;;;;1.67;1.30;;;;;;;4.97;100.00;99440.72;5093457;28;20542;-71
2021/12/01 06:08:24;;;;;;;2.22;1.50;;;;;;;4.93;100.00;99443.59;5096287;28;20086;-71
2021/12/01 06:10:53;;;;;;;2.70;1.67;;;;;;;4.93;100.00;99444.44;5096644;28;20051;-71
2021/12/01 06:13:21;;;;;;;2.67;1.67;;;;;;;4.94;100.00;99451.44;5095803;28;20131;-71
2021/12/01 06:15:54;;;;;;;2.28;1.50;;;;;;;5.02;100.00;99459.84;5096115;28;20039;-71
2021/12/01 06:18:24;;;;;;;3.13;1.73;;;;;;;5.04;100.00;99457.97;5095817;28;20044;-71
2021/12/01 06:20:53;;;;;;;2.35;1.63;;;;;;;5.04;100.00;99468.56;5096346;28;20043;-71
2021/12/01 06:23:21;;;;;;;3.05;1.85;;;;;;;4.98;100.00;99471.47;5096066;28;20105;-71
2021/12/01 06:25:50;;;;;;;2.97;1.77;;;;;;;4.96;100.00;99486.56;5095849;28;20048;-72
2021/12/01 06:28:18;;;;;;;4.15;2.00;;;;;;;4.95;100.00;99484.88;5096004;28;20070;-76
2021/12/01 06:30:46;;;;;;;3.92;1.88;;;;;;;5.02;100.00;99495.97;5096107;28;20405;-76
2021/12/01 06:33:15;;;;;;;3.33;1.88;;;;;;;4.93;100.00;99502.59;5096404;28;20040;-75
2021/12/01 06:35:49;;;;;;;2.70;1.92;;;;;;;5.00;100.00;99498.69;5095881;28;20044;-71
2021/12/01 06:38:17;;;;;;;3.30;1.90;;;;;;;5.06;100.00;99502.84;5095515;28;20044;-75
2021/12/01 06:40:47;;;;;;;2.95;1.83;;;;;;;4.99;100.00;99502.25;5095989;28;20143;-73
2021/12/01 06:43:15;;;;;;;4.95;1.95;;;;;;;4.99;100.00;99507.56;5095868;28;20044;-73
2021/12/01 06:45:44;;;;;;;3.67;1.90;;;;;;;5.00;100.00;99511.91;5095638;28;20048;-74
2021/12/01 06:48:13;;;;;;;3.53;2.00;;;;;;;5.05;100.00;99517.84;5095526;28;20044;-74
2021/12/01 06:50:41;;;;;;;4.15;1.98;;;;;;;4.97;100.00;99514.72;5095141;28;20127;-75
2021/12/01 06:53:11;;;;;;;3.58;2.08;;;;;;;5.03;100.00;99511.78;5095220;28;20036;-74
2021/12/01 06:55:40;;;;;;;3.85;2.05;;;;;;;5.01;100.00;99510.97;5095204;28;20089;-71
2021/12/01 06:58:08;;;;;;;3.70;1.80;;;;;;;5.03;100.00;99517.06;5095542;28;20040;-73
2021/12/01 07:00:37;;;;;;;5.18;2.22;;;;;;;5.06;100.00;99514.25;5095227;28;20127;-72
2021/12/01 07:03:05;;;;;;;3.58;2.05;;;;;;;5.06;100.00;99527.47;5095455;28;20122;-72
2021/12/01 07:05:34;;;;;;;3.53;2.08;;;;;;;5.04;100.00;99524.06;5095102;28;20044;-72
2021/12/01 07:08:02;;;;;;;3.85;2.00;;;;;;;5.06;100.00;99521.34;5095000;28;20051;-72
2021/12/01 07:10:32;;;;;;;3.10;2.08;;;;;;;5.08;100.00;99520.31;5095010;28;20050;-73
2021/12/01 07:13:00;;;;;;;4.50;2.28;;;;;;;5.03;100.00;99525.00;5095146;28;20047;-72
2021/12/01 07:15:28;;;;;;;4.10;2.10;;;;;;;5.05;100.00;99512.56;5094656;28;20508;-73
2021/12/01 07:17:57;;;;;;;5.25;2.25;;;;;;;5.05;100.00;99523.13;5094509;28;20048;-73
2021/12/01 07:20:25;;;;;;;4.15;2.22;;;;;;;5.13;100.00;99509.53;5094724;28;20036;-73
2021/12/01 07:22:53;;;;;;;4.63;2.15;;;;;;;5.18;100.00;99518.06;5095085;28;20040;-73
2021/12/01 07:25:21;;;;;;;4.50;2.00;;;;;;;5.14;100.00;99508.59;5093694;28;20047;-80
2021/12/01 07:27:51;;;;;;;4.00;2.17;;;;;;;5.22;100.00;99509.09;5095185;28;20044;-72
2021/12/01 07:30:19;;;;;;;3.63;2.20;;;;;;;5.23;100.00;99499.34;5094892;28;20032;-73
2021/12/01 07:32:49;;;;;;;5.20;2.17;;;;;;;5.27;100.00;99500.91;5094985;28;20040;-72
2021/12/01 07:35:17;;;;;;;4.18;2.33;;;;;;;5.25;100.00;99497.47;5095455;28;20036;-72
2021/12/01 07:37:46;;;;;;;4.75;2.30;;;;;;;5.22;100.00;99487.94;5094181;28;20036;-73
2021/12/01 07:40:14;;;;;;;4.43;2.33;;;;;;;5.24;100.00;99479.91;5094404;28;20044;-71
2021/12/01 07:42:42;;;;;;;8.50;3.13;;;;;;;5.55;100.00;99480.03;5094352;28;20044;-71
2021/12/01 07:45:12;;;;;;;4.35;2.17;;;;;;;5.72;100.00;99477.38;5094729;28;20404;-71
2021/12/01 07:47:41;;;;;;;5.05;2.55;;;;;;;5.60;100.00;99490.41;5094771;28;20440;-75
2021/12/01 07:50:11;;;;;;;5.00;2.45;;;;;;;5.46;100.00;99489.31;5094473;28;20044;-74
2021/12/01 07:52:39;;;;;;;4.85;2.53;;;;;;;5.46;100.00;99497.25;5094416;28;20068;-74
2021/12/01 07:55:08;;;;;;;3.50;2.20;;;;;;;5.54;100.00;99504.78;5094284;28;20048;-73
2021/12/01 07:57:37;;;;;;;6.63;2.47;;;;;;;5.55;100.00;99509.16;5094118;28;20036;-74
2021/12/01 08:00:07;;;;;;;4.55;2.67;;;;;;;5.70;100.00;99497.78;5094549;28;20070;-75
2021/12/01 08:02:36;;;;;;;4.72;2.80;;;;;;;5.92;100.00;99502.81;5093724;28;20051;-71
2021/12/01 08:05:06;;;;;;;6.07;2.55;;;;;;;5.87;100.00;99501.31;5094150;28;20050;-74
2021/12/01 08:07:38;;;;;;;4.00;2.30;;;;;;;5.84;100.00;99502.34;5094607;28;20156;-72
2021/12/01 08:10:08;;;;;;;4.22;2.30;;;;;;;5.88;100.00;99497.72;5094184;28;20093;-71
2021/12/01 08:12:36;;;;;;;4.47;2.50;;;;;;;5.93;100.00;99491.31;5093998;28;20048;-74
2021/12/01 08:15:07;;;;;;;5.00;2.08;;;;;;;5.92;100.00;99494.88;5093692;28;20048;-75
2021/12/01 08:17:37;;;;;;;4.22;2.05;;;;;;;5.89;100.00;99489.72;5093906;28;20075;-74
2021/12/01 08:20:06;;;;;;;4.68;1.92;;;;;;;5.94;100.00;99487.72;5093985;28;20397;-74
2021/12/01 08:22:34;;;;;;;4.85;2.30;;;;;;;5.95;100.00;99484.13;5093887;28;20040;-75
2021/12/01 08:25:04;;;;;;;5.30;2.13;;;;;;;6.04;100.00;99474.84;5093615;28;20040;-75
2021/12/01 08:27:33;;;;;;;3.60;1.95;;;;;;;6.05;100.00;99473.03;5093690;28;20105;-75
2021/12/01 08:30:01;;;;;;;4.68;2.17;;;;;;;6.10;100.00;99471.03;5093268;28;20055;-75
2021/12/01 08:32:33;;;;;;;5.22;2.20;;;;;;;6.04;100.00;99472.19;5093690;28;20039;-75
2021/12/01 08:35:05;;;;;;;3.92;2.10;;;;;;;6.07;100.00;99472.00;5093078;28;20048;-75
2021/12/01 08:37:34;;;;;;;4.60;1.98;;;;;;;6.14;100.00;99473.41;5093652;28;20477;-75
2021/12/01 08:40:02;;;;;;;4.60;2.22;;;;;;;6.22;100.00;99476.50;5093451;28;20126;-75
2021/12/01 08:42:32;;;;;;;4.10;1.85;;;;;;;6.36;100.00;99475.72;5093024;28;20043;-75
2021/12/01 08:45:00;;;;;;;7.60;2.20;;;;;;;6.42;100.00;99477.19;5093709;28;20450;-75
2021/12/01 08:47:31;;;;;;;4.32;2.03;;;;;;;6.44;100.00;99480.59;5093360;28;20054;-80
2021/12/01 08:50:00;;;;;;;2.67;1.50;;;;;;;6.48;100.00;99482.16;5093813;28;20040;-75
2021/12/01 08:52:29;;;;;;;5.07;1.95;;;;;;;6.48;100.00;99483.00;5093584;28;20036;-75
2021/12/01 08:54:59;;;;;;;3.67;2.05;;;;;;;6.49;100.00;99484.72;5093730;28;20123;-75
2021/12/01 08:57:27;;;;;;;4.03;2.10;;;;;;;6.48;100.00;99482.16;5093449;28;20046;-75
2021/12/01 08:59:56;;;;;;;4.70;2.10;;;;;;;6.47;100.00;99478.66;5093511;28;20093;-75
2021/12/01 09:02:24;;;;;;;5.68;2.15;;;;;;;6.38;100.00;99473.00;5093284;28;20554;-75
2021/12/01 09:04:53;;;;;;;5.95;2.60;;;;;;;6.42;100.00;99487.78;5093228;28;20123;-75
2021/12/01 09:07:22;;;;;;;3.70;1.80;;;;;;;6.46;100.00;99476.91;5093047;28;20412;-75
2021/12/01 09:09:52;;;;;;;3.88;2.20;;;;;;;6.47;100.00;99483.09;5093155;28;20865;-75
2021/12/01 09:12:22;;;;;;;4.35;2.13;;;;;;;6.53;100.00;99472.16;5093093;28;20062;-74
2021/12/01 09:14:52;;;;;;;4.60;2.20;;;;;;;6.52;100.00;99465.13;5093087;28;20044;-75
2021/12/01 09:17:20;;;;;;;3.95;2.15;;;;;;;6.53;100.00;99465.03;5093193;28;20078;-75
2021/12/01 09:19:49;;;;;;;7.70;2.58;;;;;;;6.61;100.00;99461.97;5093093;28;20047;-75
2021/12/01 09:22:18;;;;;;;4.78;1.75;;;;;;;6.75;100.00;99467.34;5093281;28;20063;-75
2021/12/01 09:24:48;;;;;;;7.70;2.20;;;;;;;6.84;100.00;99466.81;5093007;28;20110;-75
2021/12/01 09:27:17;;;;;;;4.68;2.40;;;;;;;6.86;100.00;99464.94;5091893;28;20102;-75
2021/12/01 09:29:46;;;;;;;5.38;1.88;;;;;;;6.90;100.00;99468.28;5092975;28;20143;-75
2021/12/01 09:32:14;;;;;;;2.38;1.35;;;;;;;6.99;100.00;99466.88;5092984;28;20105;-75
2021/12/01 09:34:44;;;;;;;2.85;1.30;;;;;;;7.03;100.00;99460.44;5092919;28;20097;-75
2021/12/01 09:37:12;;;;;;;4.78;2.13;;;;;;;6.95;100.00;99454.72;5093026;28;20502;-75
2021/12/01 09:39:41;;;;;;;6.57;2.10;;;;;;;7.02;100.00;99445.50;5093486;28;20048;-75
2021/12/01 09:42:10;;;;;;;5.05;2.63;;;;;;;6.92;100.00;99441.66;5097065;28;20052;-75
2021/12/01 09:44:39;;;;;;;6.60;2.90;;;;;;;6.87;100.00;99432.19;5095900;28;20139;-75
2021/12/01 09:47:08;;;;;;;4.40;2.55;;;;;;;6.83;100.00;99435.94;5097021;28;20074;-74
2021/12/01 09:49:37;;;;;;;4.93;2.90;;;;;;;6.96;100.00;99432.59;5096794;28;20046;-75
2021/12/01 09:52:05;;;;;;;4.90;2.58;;;;;;;7.03;100.00;99420.69;5095424;28;20048;-75
2021/12/01 09:54:34;;;;;;;5.45;3.08;;;;;;;7.14;100.00;99421.78;5096315;28;20044;-80
2021/12/01 09:57:02;;;;;;;7.53;3.47;;;;;;;7.16;100.00;99424.34;5096385;28;20105;-75
2021/12/01 09:59:31;;;;;;;5.93;3.10;;;;;;;7.21;100.00;99424.91;5096862;28;20044;-75
2021/12/01 10:02:01;;;;;;;5.18;2.90;;;;;;;7.16;100.00;99416.38;5096430;28;20079;-75
2021/12/01 10:04:29;;;;;;;6.03;3.28;;;;;;;7.26;100.00;99412.22;5096403;28;20460;-75
2021/12/01 10:07:13;;;;;;;7.55;3.70;;;;;;;7.38;100.00;99406.19;5096424;28;20406;-75
2021/12/01 10:09:43;;;;;;;7.45;4.13;;;;;;;7.45;100.00;99404.88;5096457;28;20055;-75
2021/12/01 10:12:12;;;;;;;8.32;4.13;;;;;;;7.49;100.00;99402.03;5096704;28;20048;-75
2021/12/01 10:14:45;;;;;;;8.73;4.60;;;;;;;7.30;100.00;99416.38;5096299;28;20051;-75
2021/12/01 10:17:17;;;;;;;11.52;4.50;;;;;;;7.16;100.00;99409.28;5096583;28;20044;-75
2021/12/01 10:19:45;;;;;;;9.82;4.50;;;;;;;7.16;100.00;99395.16;5096237;28;20044;-75
2021/12/01 10:22:14;;;;;;;9.25;5.10;;;;;;;7.13;100.00;99398.81;5096353;28;20477;-74
2021/12/01 10:24:45;;;;;;;7.82;4.30;;;;;;;6.95;100.00;99399.06;5096026;28;20126;-75
2021/12/01 10:27:17;;;;;;;7.57;4.25;;;;;;;7.10;100.00;99408.78;5096474;28;20105;-75
2021/12/01 10:29:48;;;;;;;9.63;4.45;;;;;;;7.10;100.00;99403.47;5095691;28;20044;-74
2021/12/01 10:32:20;;;;;;;9.75;4.13;;;;;;;7.17;100.00;99402.16;5095963;28;20047;-75
2021/12/01 10:34:57;;;;;;;9.57;4.20;;;;;;;7.22;100.00;99404.53;5095990;28;20051;-75
2021/12/01 10:37:28;;;;;;;8.95;4.22;;;;;;;7.31;100.00;99407.47;5095994;28;20085;-75
2021/12/01 10:40:09;;;;;;;8.18;4.28;;;;;;;7.37;100.00;99406.28;5096003;28;20477;-75
2021/12/01 10:42:51;;;;;;;9.38;4.55;;;;;;;7.35;100.00;99403.72;5095839;28;20420;-80
2021/12/01 10:45:22;;;;;;;12.15;5.50;;;;;;;7.35;100.00;99409.03;5095987;28;20040;-75
2021/12/01 10:47:52;;;;;;;9.48;4.78;;;;;;;7.31;100.00;99415.44;5095428;28;20508;-75
2021/12/01 10:50:24;;;;;;;8.85;4.82;;;;;;;7.24;100.00;99405.28;5095810;28;20046;-75
2021/12/01 10:52:53;;;;;;;10.52;4.97;;;;;;;7.23;100.00;99396.47;5095017;28;20135;-75
2021/12/01 10:55:24;;;;;;;11.00;5.07;;;;;;;7.24;100.00;99395.56;5095736;28;20047;-75
2021/12/01 10:57:57;;;;;;;10.63;5.60;;;;;;;7.31;100.00;99399.53;5095369;28;20051;-75
2021/12/01 11:00:27;;;;;;;10.02;5.45;;;;;;;7.30;100.00;99392.50;5095775;28;20044;-75
2021/12/01 11:03:07;;;;;;;11.32;5.10;;;;;;;7.27;100.00;99390.06;5095170;28;20048;-75
2021/12/01 11:05:38;;;;;;;13.68;5.35;;;;;;;7.18;100.00;99380.00;5095570;28;20094;-75
2021/12/01 11:08:15;;;;;;;10.88;4.85;;;;;;;7.17;100.00;99380.94;5095585;28;20040;-74
2021/12/01 11:10:47;;;;;;;12.10;5.43;;;;;;;7.16;100.00;99368.63;5095319;28;20043;-75
2021/12/01 11:13:16;;;;;;;10.82;5.50;;;;;;;7.18;100.00;99366.75;5095120;28;20063;-74
2021/12/01 11:15:51;;;;;;;9.75;5.00;;;;;;;7.20;100.00;99372.78;5094855;28;20070;-75
2021/12/01 11:18:43;;;;;;;;;;;;;;;7.21;100.00;99371.84;5095396;28;20370;-78
2021/12/01 11:21:13;;;;;;;11.77;5.18;;;;;;;7.32;100.00;99358.78;5095282;28;19973;-73
2021/12/01 11:23:44;;;;;;;8.70;5.57;;;;;;;7.50;100.00;99350.66;5094982;28;20082;-75
2021/12/01 11:26:15;;;;;;;13.45;5.47;;;;;;;7.57;100.00;99346.69;5095267;28;20047;-75
2021/12/01 11:28:46;;;;;;;9.55;5.10;;;;;;;7.56;100.00;99339.66;5094796;28;20396;-75
2021/12/01 11:31:17;;;;;;;12.95;6.40;;;;;;;7.73;100.00;99339.47;5094677;28;20040;-74
2021/12/01 11:33:47;;;;;;;11.65;6.30;;;;;;;7.92;100.00;99331.19;5094713;28;20038;-75
2021/12/01 11:36:18;;;;;;;11.68;6.68;;;;;;;7.82;100.00;99322.13;5095029;28;20040;-75
2021/12/01 11:38:51;;;;;;;14.75;6.38;;;;;;;7.79;100.00;99312.50;5094608;28;20040;-74
2021/12/01 11:41:19;;;;;;;12.40;6.20;;;;;;;7.66;100.00;99314.25;5094727;28;20046;-75
2021/12/01 11:43:49;;;;;;;13.23;5.57;;;;;;;7.70;100.00;99310.44;5094515;28;20453;-75
2021/12/01 11:46:19;;;;;;;11.27;5.35;;;;;;;7.70;100.00;99298.03;5095022;28;20055;-74
2021/12/01 11:48:51;;;;;;;11.35;5.43;;;;;;;7.78;100.00;99286.91;5094396;28;20040;-75